sensor_id;sensor_type;location;lat;lon;timestamp;temperature;humidity
9095;DHT22;4583;49.796;9.902;2023-09-19T00:09:52;19.50;97.90
9095;DHT22;4583;49.796;9.902;2023-09-19T00:19:54;19.40;97.80
9095;DHT22;4583;49.796;9.902;2023-09-19T00:29:55;19.40;98.00
9095;DHT22;4583;49.796;9.902;2023-09-19T00:39:57;19.40;98.10
9095;DHT22;4583;49.796;9.902;2023-09-19T00:49:59;19.40;98.20
9095;DHT22;4583;49.796;9.902;2023-09-19T01:00:02;19.40;98.30
9095;DHT22;4583;49.796;9.902;2023-09-19T01:10:14;19.40;98.50
9095;DHT22;4583;49.796;9.902;2023-09-19T01:20:26;19.30;98.70
9095;DHT22;4583;49.796;9.902;2023-09-19T07:22:23;19.20;99.00
9095;DHT22;4583;49.796;9.902;2023-09-19T07:32:25;19.40;99.90
9095;DHT22;4583;49.796;9.902;2023-09-19T07:42:27;19.50;99.80
9095;DHT22;4583;49.796;9.902;2023-09-19T07:52:29;19.50;98.90
9095;DHT22;4583;49.796;9.902;2023-09-19T08:02:35;19.60;97.90
9095;DHT22;4583;49.796;9.902;2023-09-19T08:12:43;19.70;97.30
9095;DHT22;4583;49.796;9.902;2023-09-19T08:22:52;19.50;97.20
9095;DHT22;4583;49.796;9.902;2023-09-19T08:32:59;19.60;96.50
9095;DHT22;4583;49.796;9.902;2023-09-19T08:43:01;19.70;96.00
9095;DHT22;4583;49.796;9.902;2023-09-19T08:53:10;19.80;94.70
9095;DHT22;4583;49.796;9.902;2023-09-19T09:03:14;19.80;94.10
9095;DHT22;4583;49.796;9.902;2023-09-19T09:13:17;19.90;93.60
9095;DHT22;4583;49.796;9.902;2023-09-19T09:23:19;20.00;92.60
9095;DHT22;4583;49.796;9.902;2023-09-19T09:33:21;20.00;91.00
9095;DHT22;4583;49.796;9.902;2023-09-19T09:43:35;20.40;90.30
9095;DHT22;4583;49.796;9.902;2023-09-19T09:53:37;20.30;86.00
9095;DHT22;4583;49.796;9.902;2023-09-19T10:03:40;20.40;83.90
9095;DHT22;4583;49.796;9.902;2023-09-19T10:13:45;20.40;82.40
9095;DHT22;4583;49.796;9.902;2023-09-19T10:23:50;20.50;79.70
9095;DHT22;4583;49.796;9.902;2023-09-19T10:33:55;20.60;76.40
9095;DHT22;4583;49.796;9.902;2023-09-19T10:43:58;20.40;71.80
9095;DHT22;4583;49.796;9.902;2023-09-19T10:54:11;20.40;71.30
9095;DHT22;4583;49.796;9.902;2023-09-19T11:24:31;20.30;71.80
9095;DHT22;4583;49.796;9.902;2023-09-19T11:44:37;20.40;71.50
9095;DHT22;4583;49.796;9.902;2023-09-19T11:54:40;20.70;72.40
9095;DHT22;4583;49.796;9.902;2023-09-19T12:04:44;21.10;68.20
9095;DHT22;4583;49.796;9.902;2023-09-19T12:14:50;21.40;65.20
9095;DHT22;4583;49.796;9.902;2023-09-19T12:24:52;21.60;64.40
9095;DHT22;4583;49.796;9.902;2023-09-19T12:34:56;21.90;63.70
9095;DHT22;4583;49.796;9.902;2023-09-19T12:44:58;21.90;63.20
9095;DHT22;4583;49.796;9.902;2023-09-19T12:55:02;21.90;62.80
9095;DHT22;4583;49.796;9.902;2023-09-19T13:05:04;22.10;61.30
9095;DHT22;4583;49.796;9.902;2023-09-19T13:15:12;22.20;61.00
9095;DHT22;4583;49.796;9.902;2023-09-19T13:25:16;22.20;59.60
9095;DHT22;4583;49.796;9.902;2023-09-19T13:35:21;22.30;58.60
9095;DHT22;4583;49.796;9.902;2023-09-19T13:45:22;22.30;58.70
9095;DHT22;4583;49.796;9.902;2023-09-19T13:55:26;22.20;59.30
9095;DHT22;4583;49.796;9.902;2023-09-19T14:05:28;22.60;58.90
9095;DHT22;4583;49.796;9.902;2023-09-19T14:15:31;23.30;57.10
9095;DHT22;4583;49.796;9.902;2023-09-19T14:25:36;24.60;54.60
9095;DHT22;4583;49.796;9.902;2023-09-19T14:35:39;24.80;54.10
9095;DHT22;4583;49.796;9.902;2023-09-19T14:45:41;24.20;55.30
9095;DHT22;4583;49.796;9.902;2023-09-19T14:55:43;23.80;56.30
9095;DHT22;4583;49.796;9.902;2023-09-19T15:05:46;23.80;56.80
9095;DHT22;4583;49.796;9.902;2023-09-19T15:15:48;23.40;57.00
9095;DHT22;4583;49.796;9.902;2023-09-19T15:25:50;23.10;57.50
9095;DHT22;4583;49.796;9.902;2023-09-19T15:35:52;22.80;59.20
9095;DHT22;4583;49.796;9.902;2023-09-19T15:46:01;22.70;60.10
9095;DHT22;4583;49.796;9.902;2023-09-19T15:56:06;22.60;60.70
9095;DHT22;4583;49.796;9.902;2023-09-19T16:06:13;22.40;61.00
9095;DHT22;4583;49.796;9.902;2023-09-19T16:16:16;22.30;61.30
9095;DHT22;4583;49.796;9.902;2023-09-19T16:26:19;22.20;62.10
9095;DHT22;4583;49.796;9.902;2023-09-19T16:36:25;22.10;62.70
9095;DHT22;4583;49.796;9.902;2023-09-19T16:46:27;22.00;63.20
9095;DHT22;4583;49.796;9.902;2023-09-19T16:56:29;21.90;63.50
9095;DHT22;4583;49.796;9.902;2023-09-19T17:06:34;21.80;64.10
9095;DHT22;4583;49.796;9.902;2023-09-19T17:16:37;21.50;64.10
9095;DHT22;4583;49.796;9.902;2023-09-19T17:26:39;21.50;65.20
9095;DHT22;4583;49.796;9.902;2023-09-19T17:36:44;21.30;65.80
9095;DHT22;4583;49.796;9.902;2023-09-19T17:46:47;21.10;66.60
9095;DHT22;4583;49.796;9.902;2023-09-19T17:56:50;20.80;68.70
9095;DHT22;4583;49.796;9.902;2023-09-19T18:06:51;20.60;69.30
9095;DHT22;4583;49.796;9.902;2023-09-19T18:16:53;20.40;70.00
9095;DHT22;4583;49.796;9.902;2023-09-19T18:26:59;20.40;70.30
9095;DHT22;4583;49.796;9.902;2023-09-19T18:37:00;20.20;71.50
9095;DHT22;4583;49.796;9.902;2023-09-19T18:47:04;20.00;72.30
9095;DHT22;4583;49.796;9.902;2023-09-19T18:57:06;20.00;73.20
9095;DHT22;4583;49.796;9.902;2023-09-19T19:07:08;19.80;73.70
9095;DHT22;4583;49.796;9.902;2023-09-19T19:17:13;19.80;74.60
9095;DHT22;4583;49.796;9.902;2023-09-19T19:27:17;19.70;75.10
9095;DHT22;4583;49.796;9.902;2023-09-19T19:47:21;19.40;77.00
9095;DHT22;4583;49.796;9.902;2023-09-19T20:17:30;19.30;79.40
9095;DHT22;4583;49.796;9.902;2023-09-19T20:37:34;18.90;82.90
9095;DHT22;4583;49.796;9.902;2023-09-19T20:47:39;18.90;84.70
9095;DHT22;4583;49.796;9.902;2023-09-19T20:57:41;18.80;86.20
9095;DHT22;4583;49.796;9.902;2023-09-19T21:07:43;18.70;87.50
9095;DHT22;4583;49.796;9.902;2023-09-19T21:17:45;18.60;88.60
9095;DHT22;4583;49.796;9.902;2023-09-19T21:27:48;18.60;89.10
9095;DHT22;4583;49.796;9.902;2023-09-19T21:37:50;18.50;90.20
9095;DHT22;4583;49.796;9.902;2023-09-19T21:47:51;18.40;90.70
9095;DHT22;4583;49.796;9.902;2023-09-19T21:57:54;18.40;91.10
9095;DHT22;4583;49.796;9.902;2023-09-19T22:07:57;18.20;91.60
9095;DHT22;4583;49.796;9.902;2023-09-19T22:17:59;18.20;92.00
9095;DHT22;4583;49.796;9.902;2023-09-19T22:28:01;18.10;92.40
9095;DHT22;4583;49.796;9.902;2023-09-19T22:38:05;17.90;92.80
9095;DHT22;4583;49.796;9.902;2023-09-19T22:48:15;17.80;93.40
9095;DHT22;4583;49.796;9.902;2023-09-19T22:58:17;17.70;94.00
9095;DHT22;4583;49.796;9.902;2023-09-19T23:08:19;17.70;94.30
9095;DHT22;4583;49.796;9.902;2023-09-19T23:18:24;17.70;94.70
9095;DHT22;4583;49.796;9.902;2023-09-19T23:28:28;17.70;94.80
9095;DHT22;4583;49.796;9.902;2023-09-19T23:38:37;17.80;94.90
9095;DHT22;4583;49.796;9.902;2023-09-19T23:48:39;17.80;94.90
9095;DHT22;4583;49.796;9.902;2023-09-19T23:58:42;17.80;94.80
